Time;durP1;ratioP1;P1;durP2;ratioP2;P2;SDS_P1;SDS_P2;PMS_P1;PMS_P2;Temp;Humidity;BMP_temperature;BMP_pressure;BME280_temperature;BME280_humidity;BME280_pressure;Samples;Min_cycle;Max_cycle;Signal;HPM_P1;HPM_P2
2023/03/26 00:00:53;;;;;;;2.72;0.70;;;;;;;;;;5103956;28;20011;-69
2023/03/26 00:03:19;;;;;;;1.48;0.85;;;;;;;;;;5084171;28;20106;-66
2023/03/26 00:05:47;;;;;;;1.85;0.73;;;;;;;;;;5080387;28;20096;-69
2023/03/26 00:08:12;;;;;;;1.48;1.00;;;;;;;;;;5083060;28;20024;-68
2023/03/26 00:10:39;;;;;;;1.17;0.98;;;;;;;;;;5081387;28;20017;-69
2023/03/26 00:13:05;;;;;;;2.58;1.05;;;;;;;;;;5091285;28;20055;-68
2023/03/26 00:15:30;;;;;;;8.20;1.40;;;;;;;;;;5104791;28;20040;-67
2023/03/26 00:17:56;;;;;;;3.63;1.10;;;;;;;;;;5106439;28;20110;-70
2023/03/26 00:20:21;;;;;;;3.75;1.00;;;;;;;;;;5079373;28;20683;-69
2023/03/26 00:22:46;;;;;;;4.03;1.00;;;;;;;;;;5092357;28;20035;-70
2023/03/26 00:25:12;;;;;;;3.33;1.02;;;;;;;;;;5088590;28;20024;-67
2023/03/26 00:27:37;;;;;;;2.85;1.48;;;;;;;;;;5087378;28;20059;-69
2023/03/26 00:30:03;;;;;;;1.55;0.95;;;;;;;;;;5059279;28;20020;-67
2023/03/26 00:32:29;;;;;;;1.15;0.77;;;;;;;;;;5088160;28;20027;-66
2023/03/26 00:34:55;;;;;;;3.88;1.13;;;;;;;;;;5089301;28;20370;-68
2023/03/26 00:37:25;;;;;;;5.85;1.15;;;;;;;;;;5088709;28;20035;-69
2023/03/26 00:39:50;;;;;;;2.92;0.90;;;;;;;;;;5088972;28;20403;-67
2023/03/26 00:42:15;;;;;;;2.50;0.75;;;;;;;;;;5103051;28;20103;-70
2023/03/26 00:44:41;;;;;;;1.48;0.70;;;;;;;;;;5089957;28;20078;-68
2023/03/26 00:47:06;;;;;;;4.32;0.88;;;;;;;;;;5088498;28;20020;-68
2023/03/26 00:49:32;;;;;;;1.52;0.80;;;;;;;;;;5089377;28;20021;-67
2023/03/26 00:51:57;;;;;;;1.75;0.80;;;;;;;;;;5089229;28;20103;-68
2023/03/26 00:54:22;;;;;;;4.53;0.70;;;;;;;;;;5089226;28;20489;-67
2023/03/26 00:56:47;;;;;;;5.32;0.98;;;;;;;;;;5069541;28;20103;-68
2023/03/26 00:59:13;;;;;;;2.88;0.90;;;;;;;;;;5100981;28;20024;-67
2023/03/26 01:01:38;;;;;;;2.28;0.90;;;;;;;;;;5095240;28;20019;-65
2023/03/26 01:04:22;;;;;;;3.05;1.35;;;;;;;;;;5056919;28;20042;-68
2023/03/26 01:06:48;;;;;;;1.42;0.75;;;;;;;;;;5097180;28;20016;-69
2023/03/26 01:09:14;;;;;;;2.55;0.77;;;;;;;;;;5083497;28;20270;-66
2023/03/26 01:11:40;;;;;;;2.20;0.93;;;;;;;;;;5088608;28;20442;-67
2023/03/26 01:14:17;;;;;;;2.33;0.90;;;;;;;;;;5088928;28;20051;-68
2023/03/26 01:16:50;;;;;;;4.05;0.93;;;;;;;;;;5104863;28;20076;-67
2023/03/26 01:19:15;;;;;;;4.93;0.98;;;;;;;;;;5109377;28;20039;-66
2023/03/26 01:21:41;;;;;;;1.97;1.23;;;;;;;;;;5095531;28;20515;-69
2023/03/26 01:24:07;;;;;;;5.22;1.20;;;;;;;;;;5098182;28;20281;-65
2023/03/26 01:26:59;;;;;;;3.03;1.17;;;;;;;;;;5086634;28;20028;-65
2023/03/26 01:29:24;;;;;;;2.15;1.05;;;;;;;;;;5074935;28;20134;-69
2023/03/26 01:31:59;;;;;;;1.87;0.93;;;;;;;;;;5079270;28;20020;-67
2023/03/26 01:34:29;;;;;;;3.38;1.20;;;;;;;;;;5103962;28;20878;-69
2023/03/26 01:36:54;;;;;;;1.52;0.80;;;;;;;;;;5076814;28;20087;-68
2023/03/26 01:39:41;;;;;;;1.05;0.80;;;;;;;;;;5087918;28;20142;-68
2023/03/26 01:42:10;;;;;;;2.60;1.02;;;;;;;;;;5080018;28;20028;-68
2023/03/26 01:44:35;;;;;;;1.95;0.85;;;;;;;;;;5088019;28;20020;-69
2023/03/26 01:47:00;;;;;;;2.23;1.20;;;;;;;;;;5087421;28;20024;-66
2023/03/26 01:49:29;;;;;;;7.05;1.05;;;;;;;;;;5088106;28;20249;-68
2023/03/26 01:51:55;;;;;;;;;;;;;;;;;;5088060;28;20088;-69
2023/03/26 01:54:23;;;;;;;4.07;0.70;;;;;;;;;;5087692;28;20499;-67
2023/03/26 01:57:00;;;;;;;3.20;1.05;;;;;;;;;;5086367;28;20500;-70
2023/03/26 01:59:34;;;;;;;1.48;0.73;;;;;;;;;;5081458;28;20039;-66
2023/03/26 02:02:05;;;;;;;3.33;1.00;;;;;;;;;;5085511;28;20101;-68
2023/03/26 02:04:39;;;;;;;5.35;1.02;;;;;;;;;;5073997;28;20020;-69
2023/03/26 02:07:08;;;;;;;3.72;1.13;;;;;;;;;;5097903;28;20731;-69
2023/03/26 02:09:44;;;;;;;3.70;0.90;;;;;;;;;;5082107;28;20020;-69
2023/03/26 02:12:10;;;;;;;3.08;0.93;;;;;;;;;;5085634;28;20020;-66
2023/03/26 02:14:35;;;;;;;1.35;1.00;;;;;;;;;;5087813;28;20497;-68
2023/03/26 02:17:00;;;;;;;2.33;0.98;;;;;;;;;;5086755;28;20016;-65
2023/03/26 02:19:26;;;;;;;2.38;0.90;;;;;;;;;;5087135;28;20095;-68
2023/03/26 02:21:51;;;;;;;3.78;0.85;;;;;;;;;;5087073;28;20119;-67
2023/03/26 02:24:17;;;;;;;2.53;1.10;;;;;;;;;;5087587;28;20076;-65
2023/03/26 02:26:42;;;;;;;2.13;0.90;;;;;;;;;;5082641;28;20419;-68
2023/03/26 02:29:08;;;;;;;4.95;0.95;;;;;;;;;;5083647;28;20055;-68
2023/03/26 02:31:34;;;;;;;1.45;0.75;;;;;;;;;;5055454;28;20052;-68
2023/03/26 02:34:00;;;;;;;6.03;1.80;;;;;;;;;;5087662;28;20498;-66
2023/03/26 02:36:26;;;;;;;5.10;1.27;;;;;;;;;;5086247;28;20082;-69
2023/03/26 02:38:52;;;;;;;5.50;1.00;;;;;;;;;;5086563;28;20512;-68
2023/03/26 02:41:17;;;;;;;4.05;0.90;;;;;;;;;;5087264;28;20024;-66
2023/03/26 02:43:42;;;;;;;2.17;1.35;;;;;;;;;;5087223;28;20044;-69
2023/03/26 02:46:08;;;;;;;1.98;1.10;;;;;;;;;;5101459;28;20026;-69
2023/03/26 02:48:36;;;;;;;4.72;1.00;;;;;;;;;;5086604;28;20050;-69
2023/03/26 02:51:01;;;;;;;10.48;1.85;;;;;;;;;;5087932;28;20012;-68
2023/03/26 02:53:30;;;;;;;5.90;1.13;;;;;;;;;;5089656;28;20434;-67
2023/03/26 02:55:56;;;;;;;3.67;1.20;;;;;;;;;;5091284;28;20081;-68
2023/03/26 02:58:24;;;;;;;5.30;1.67;;;;;;;;;;5090387;28;20024;-69
2023/03/26 03:00:53;;;;;;;9.13;1.23;;;;;;;;;;5096081;28;20043;-69
2023/03/26 03:03:22;;;;;;;4.75;1.58;;;;;;;;;;5085522;28;20043;-69
2023/03/26 03:05:48;;;;;;;4.88;1.30;;;;;;;;;;5077147;28;20126;-66
2023/03/26 03:08:13;;;;;;;3.03;1.10;;;;;;;;;;5088795;28;20179;-69
2023/03/26 03:10:38;;;;;;;5.05;1.38;;;;;;;;;;5091377;28;20150;-66
2023/03/26 03:13:06;;;;;;;6.38;1.70;;;;;;;;;;5105012;28;20441;-68
2023/03/26 03:15:31;;;;;;;4.18;1.45;;;;;;;;;;5097861;28;20043;-67
2023/03/26 03:17:57;;;;;;;4.90;1.20;;;;;;;;;;5090787;28;20024;-66
2023/03/26 03:20:22;;;;;;;2.83;1.10;;;;;;;;;;5090699;28;20554;-69
2023/03/26 03:22:47;;;;;;;5.70;1.10;;;;;;;;;;5091145;28;20024;-66
2023/03/26 03:25:13;;;;;;;6.32;1.50;;;;;;;;;;5090550;28;20038;-70
2023/03/26 03:27:40;;;;;;;3.17;1.23;;;;;;;;;;5086341;28;20140;-69
2023/03/26 03:30:05;;;;;;;2.83;1.25;;;;;;;;;;5084546;28;20015;-68
2023/03/26 03:32:30;;;;;;;6.28;1.20;;;;;;;;;;5091253;28;20016;-68
2023/03/26 03:34:56;;;;;;;14.68;2.25;;;;;;;;;;5090863;28;20036;-70
2023/03/26 03:37:22;;;;;;;6.90;1.42;;;;;;;;;;5089788;28;20480;-69
2023/03/26 03:39:47;;;;;;;2.42;1.20;;;;;;;;;;5095654;28;20077;-66
2023/03/26 03:42:12;;;;;;;9.85;1.50;;;;;;;;;;5091027;28;20024;-70
2023/03/26 03:44:37;;;;;;;5.05;1.13;;;;;;;;;;5090007;28;20020;-69
2023/03/26 03:47:03;;;;;;;5.60;1.80;;;;;;;;;;5102284;28;20404;-69
2023/03/26 03:49:28;;;;;;;4.80;1.38;;;;;;;;;;5086578;28;20021;-68
2023/03/26 03:51:53;;;;;;;3.30;1.17;;;;;;;;;;5081873;28;20031;-68
2023/03/26 03:54:18;;;;;;;4.85;1.20;;;;;;;;;;5089711;28;20020;-66
2023/03/26 03:56:47;;;;;;;3.30;1.23;;;;;;;;;;5089549;28;20020;-69
2023/03/26 03:59:12;;;;;;;3.22;1.23;;;;;;;;;;5090675;28;20080;-67
2023/03/26 04:01:38;;;;;;;7.70;1.48;;;;;;;;;;5089565;28;20117;-68
2023/03/26 04:04:03;;;;;;;3.42;1.52;;;;;;;;;;5072702;28;20161;-69
2023/03/26 04:06:29;;;;;;;4.05;1.08;;;;;;;;;;5080998;28;20012;-67
2023/03/26 04:08:55;;;;;;;3.90;1.40;;;;;;;;;;5094301;28;20154;-69
2023/03/26 04:11:20;;;;;;;3.88;1.10;;;;;;;;;;5075019;28;20107;-70
2023/03/26 04:13:45;;;;;;;4.55;1.42;;;;;;;;;;5091451;28;20734;-66
2023/03/26 04:16:11;;;;;;;2.88;1.02;;;;;;;;;;5101674;28;20478;-69
2023/03/26 04:18:36;;;;;;;3.10;1.13;;;;;;;;;;5086301;28;20024;-64
2023/03/26 04:21:04;;;;;;;4.80;1.63;;;;;;;;;;5101970;28;20054;-68
2023/03/26 04:23:29;;;;;;;3.20;0.98;;;;;;;;;;5110209;28;20054;-68
2023/03/26 04:25:55;;;;;;;2.45;1.17;;;;;;;;;;5098413;28;20094;-66
2023/03/26 04:28:20;;;;;;;6.05;1.80;;;;;;;;;;5090013;28;20048;-67
2023/03/26 04:30:47;;;;;;;2.13;1.10;;;;;;;;;;5079305;28;20021;-65
2023/03/26 04:33:14;;;;;;;2.95;1.13;;;;;;;;;;5103489;28;20095;-69
2023/03/26 04:35:43;;;;;;;8.40;0.95;;;;;;;;;;5089995;28;20020;-69
2023/03/26 04:38:08;;;;;;;1.30;0.80;;;;;;;;;;5088387;28;20108;-66
2023/03/26 04:40:34;;;;;;;6.20;1.00;;;;;;;;;;5089725;28;20215;-68
2023/03/26 04:43:02;;;;;;;3.35;1.10;;;;;;;;;;5071571;28;20102;-69
2023/03/26 04:45:29;;;;;;;1.95;1.05;;;;;;;;;;5087811;28;20036;-69
2023/03/26 04:47:54;;;;;;;2.10;0.98;;;;;;;;;;5088123;28;20020;-70
2023/03/26 04:50:20;;;;;;;3.42;0.90;;;;;;;;;;5089358;28;20024;-69
2023/03/26 04:52:45;;;;;;;5.35;1.45;;;;;;;;;;5089119;28;20019;-66
2023/03/26 04:55:20;;;;;;;2.55;0.90;;;;;;;;;;5101296;28;20019;-68
2023/03/26 04:57:49;;;;;;;4.65;1.13;;;;;;;;;;5082200;28;20416;-69
2023/03/26 05:00:18;;;;;;;4.55;0.95;;;;;;;;;;5095731;28;20016;-68
2023/03/26 05:02:44;;;;;;;4.57;0.93;;;;;;;;;;5080219;28;20116;-68
2023/03/26 05:05:09;;;;;;;2.60;0.80;;;;;;;;;;5073824;28;20029;-68
2023/03/26 05:07:35;;;;;;;1.95;0.88;;;;;;;;;;5088414;28;20030;-69
2023/03/26 05:10:03;;;;;;;2.50;1.00;;;;;;;;;;5083931;28;20016;-66
2023/03/26 05:12:29;;;;;;;2.38;0.70;;;;;;;;;;5089346;28;20389;-66
2023/03/26 05:14:54;;;;;;;1.40;0.90;;;;;;;;;;5088725;28;20074;-68
2023/03/26 05:17:21;;;;;;;0.63;0.63;;;;;;;;;;5087839;28;20119;-69
2023/03/26 05:19:46;;;;;;;3.47;1.30;;;;;;;;;;5102648;28;20046;-69
2023/03/26 05:22:12;;;;;;;2.90;0.80;;;;;;;;;;5088471;28;20481;-68
2023/03/26 05:24:37;;;;;;;3.88;1.08;;;;;;;;;;5087831;28;20099;-66
2023/03/26 05:27:03;;;;;;;2.70;1.05;;;;;;;;;;5083751;28;20024;-69
2023/03/26 05:29:28;;;;;;;1.35;0.82;;;;;;;;;;5080097;28;20020;-67
2023/03/26 05:31:53;;;;;;;1.65;0.98;;;;;;;;;;5077941;28;20382;-70
2023/03/26 05:34:19;;;;;;;1.67;0.80;;;;;;;;;;5102539;28;20042;-69
2023/03/26 05:36:44;;;;;;;2.03;1.00;;;;;;;;;;5087809;28;20031;-70
2023/03/26 05:39:09;;;;;;;5.28;1.30;;;;;;;;;;5087977;28;20032;-67
2023/03/26 05:41:35;;;;;;;2.50;1.20;;;;;;;;;;5095116;28;20027;-71
2023/03/26 05:44:00;;;;;;;3.97;1.08;;;;;;;;;;5109163;28;20645;-67
2023/03/26 05:46:26;;;;;;;3.83;1.60;;;;;;;;;;5087575;28;20486;-70
2023/03/26 05:48:51;;;;;;;3.15;1.08;;;;;;;;;;5087502;28;20500;-68
2023/03/26 05:51:16;;;;;;;4.05;1.13;;;;;;;;;;5074698;28;20245;-66
2023/03/26 05:53:42;;;;;;;2.80;0.95;;;;;;;;;;5088010;28;20022;-68
2023/03/26 05:56:07;;;;;;;3.33;1.00;;;;;;;;;;5088260;28;20105;-68
2023/03/26 05:58:33;;;;;;;2.00;0.80;;;;;;;;;;5087622;28;20016;-68
2023/03/26 06:01:08;;;;;;;1.58;0.90;;;;;;;;;;5088040;28;20094;-66
2023/03/26 06:03:35;;;;;;;3.80;1.25;;;;;;;;;;5089920;28;20023;-69
2023/03/26 06:06:02;;;;;;;1.80;1.02;;;;;;;;;;5096233;28;20541;-66
2023/03/26 06:08:28;;;;;;;1.23;0.93;;;;;;;;;;5097185;28;20012;-67
2023/03/26 06:10:57;;;;;;;1.75;0.73;;;;;;;;;;5085333;28;20498;-70
2023/03/26 06:13:22;;;;;;;2.58;1.00;;;;;;;;;;5096358;28;20099;-69
2023/03/26 06:15:47;;;;;;;6.88;1.23;;;;;;;;;;5088030;28;20103;-66
2023/03/26 06:18:13;;;;;;;1.67;1.17;;;;;;;;;;5087225;28;20504;-69
2023/03/26 06:20:39;;;;;;;4.38;1.27;;;;;;;;;;5087437;28;20427;-68
2023/03/26 06:23:05;;;;;;;1.65;0.82;;;;;;;;;;5087296;28;20024;-69
2023/03/26 06:25:30;;;;;;;2.70;1.20;;;;;;;;;;5087025;28;20016;-65
2023/03/26 06:27:55;;;;;;;4.85;1.38;;;;;;;;;;5086621;28;20127;-68
2023/03/26 06:30:20;;;;;;;3.80;1.30;;;;;;;;;;5087697;28;20102;-67
2023/03/26 06:32:47;;;;;;;3.40;1.15;;;;;;;;;;5087778;28;20051;-69
2023/03/26 06:35:12;;;;;;;2.33;1.00;;;;;;;;;;5082114;28;20039;-70
2023/03/26 06:37:37;;;;;;;2.70;1.17;;;;;;;;;;5086190;28;20082;-66
2023/03/26 06:40:03;;;;;;;3.65;1.30;;;;;;;;;;5087098;28;20062;-70
2023/03/26 06:42:28;;;;;;;1.75;1.08;;;;;;;;;;5087244;28;20103;-68
2023/03/26 06:44:54;;;;;;;2.63;1.10;;;;;;;;;;5088158;28;20024;-69
2023/03/26 06:47:19;;;;;;;4.78;1.40;;;;;;;;;;5086362;28;20012;-66
2023/03/26 06:49:44;;;;;;;6.05;1.40;;;;;;;;;;5086878;28;20020;-69
2023/03/26 06:52:09;;;;;;;2.67;1.08;;;;;;;;;;5088455;28;20052;-66
2023/03/26 06:54:35;;;;;;;1.92;1.27;;;;;;;;;;5084433;28;20052;-69
2023/03/26 06:57:00;;;;;;;2.03;1.10;;;;;;;;;;5086479;28;20059;-66
2023/03/26 06:59:25;;;;;;;2.35;1.48;;;;;;;;;;5084472;28;20020;-67
2023/03/26 07:01:50;;;;;;;6.97;1.30;;;;;;;;;;5086920;28;20162;-69
2023/03/26 07:04:15;;;;;;;5.20;1.25;;;;;;;;;;5086347;28;20028;-66
2023/03/26 07:06:41;;;;;;;3.55;1.15;;;;;;;;;;5085573;28;20020;-68
2023/03/26 07:09:06;;;;;;;3.10;1.25;;;;;;;;;;5087459;28;20102;-65
2023/03/26 07:11:31;;;;;;;4.10;1.73;;;;;;;;;;5082909;28;20357;-68
2023/03/26 07:13:58;;;;;;;3.10;1.00;;;;;;;;;;5092083;28;20485;-70
2023/03/26 07:16:23;;;;;;;6.80;1.55;;;;;;;;;;5086726;28;20070;-68
2023/03/26 07:18:48;;;;;;;8.35;1.58;;;;;;;;;;5074676;28;20448;-69
2023/03/26 07:21:14;;;;;;;1.80;1.00;;;;;;;;;;5085387;28;20123;-70
2023/03/26 07:23:39;;;;;;;10.23;2.15;;;;;;;;;;5083222;28;20024;-69
2023/03/26 07:26:11;;;;;;;6.90;1.20;;;;;;;;;;5082331;28;20019;-67
2023/03/26 07:28:38;;;;;;;6.70;1.90;;;;;;;;;;5108030;22;20035;-67
2023/03/26 07:31:14;;;;;;;8.18;1.63;;;;;;;;;;5099224;28;20165;-68
2023/03/26 07:33:52;;;;;;;11.05;1.90;;;;;;;;;;5097149;28;20019;-68
2023/03/26 07:36:20;;;;;;;6.80;2.37;;;;;;;;;;5107234;28;20051;-67
2023/03/26 07:39:04;;;;;;;7.28;1.77;;;;;;;;;;5100384;28;20252;-67
2023/03/26 07:41:29;;;;;;;5.10;1.30;;;;;;;;;;5085558;28;20020;-68
2023/03/26 07:43:57;;;;;;;5.07;1.20;;;;;;;;;;5093083;28;20111;-68
2023/03/26 07:46:27;;;;;;;5.97;1.47;;;;;;;;;;5107704;28;20068;-67
2023/03/26 07:48:53;;;;;;;7.25;1.63;;;;;;;;;;5112950;28;20030;-67
2023/03/26 07:51:19;;;;;;;7.15;1.92;;;;;;;;;;5096109;28;20023;-67
2023/03/26 07:53:44;;;;;;;9.40;1.38;;;;;;;;;;5092400;28;20024;-67
2023/03/26 07:56:17;;;;;;;11.90;1.85;;;;;;;;;;5094073;28;20074;-67
2023/03/26 07:58:55;;;;;;;5.72;1.63;;;;;;;;;;5102262;28;20089;-66
2023/03/26 08:01:39;;;;;;;9.10;1.75;;;;;;;;;;5105786;28;20063;-67
2023/03/26 08:04:23;;;;;;;13.00;1.58;;;;;;;;;;5091682;28;20032;-68
2023/03/26 08:07:09;;;;;;;5.75;1.60;;;;;;;;;;5085285;28;20043;-67
2023/03/26 08:09:45;;;;;;;7.43;2.03;;;;;;;;;;5087219;28;20020;-68
2023/03/26 08:12:14;;;;;;;12.35;2.00;;;;;;;;;;5087758;28;20027;-68
2023/03/26 08:14:57;;;;;;;9.23;2.33;;;;;;;;;;5091785;28;20390;-66
2023/03/26 08:17:28;;;;;;;7.38;1.70;;;;;;;;;;5088870;28;20101;-67
2023/03/26 08:19:57;;;;;;;13.07;2.20;;;;;;;;;;5091220;28;20020;-67
2023/03/26 08:22:26;;;;;;;7.53;1.92;;;;;;;;;;5090510;28;20021;-68
2023/03/26 08:24:56;;;;;;;10.45;2.33;;;;;;;;;;5075379;28;21093;-67
2023/03/26 08:27:30;;;;;;;21.23;2.05;;;;;;;;;;5085082;28;20032;-67
2023/03/26 08:30:01;;;;;;;9.40;2.00;;;;;;;;;;5081304;28;20020;-67
2023/03/26 08:32:27;;;;;;;10.57;1.58;;;;;;;;;;5086323;28;20493;-67
2023/03/26 08:34:52;;;;;;;7.47;1.85;;;;;;;;;;5086642;28;20509;-67
2023/03/26 08:37:18;;;;;;;14.05;2.05;;;;;;;;;;5088748;28;20462;-68
2023/03/26 08:39:43;;;;;;;16.23;2.05;;;;;;;;;;5086751;28;20020;-68
2023/03/26 08:42:09;;;;;;;14.18;2.42;;;;;;;;;;5090586;28;20044;-67
2023/03/26 08:44:47;;;;;;;12.77;2.58;;;;;;;;;;5091329;28;20159;-67
2023/03/26 08:47:22;;;;;;;10.30;1.73;;;;;;;;;;5090486;28;20602;-69
2023/03/26 08:49:54;;;;;;;15.98;2.85;;;;;;;;;;5090562;28;20031;-68
2023/03/26 08:52:38;;;;;;;7.63;2.40;;;;;;;;;;5090310;28;20016;-68
2023/03/26 08:55:24;;;;;;;17.63;3.97;;;;;;;;;;5106938;28;20060;-68
2023/03/26 08:58:08;;;;;;;7.88;2.22;;;;;;;;;;5102851;28;20091;-69
2023/03/26 09:00:33;;;;;;;12.13;2.63;;;;;;;;;;5092472;28;20077;-67
2023/03/26 09:03:11;;;;;;;9.63;2.00;;;;;;;;;;5090243;28;20023;-67
2023/03/26 09:05:42;;;;;;;15.82;2.17;;;;;;;;;;5089352;28;20431;-70
2023/03/26 09:08:07;;;;;;;11.30;2.28;;;;;;;;;;5075305;28;20020;-70
2023/03/26 09:10:48;;;;;;;9.77;1.77;;;;;;;;;;5090235;28;20103;-67
2023/03/26 09:13:29;;;;;;;8.90;2.33;;;;;;;;;;5089606;28;20607;-67
2023/03/26 09:16:13;;;;;;;12.48;2.58;;;;;;;;;;5102345;28;20547;-67
2023/03/26 09:18:54;;;;;;;14.18;2.65;;;;;;;;;;5094408;28;20015;-67
2023/03/26 09:21:21;;;;;;;11.15;2.30;;;;;;;;;;5090621;28;20035;-67
2023/03/26 09:24:04;;;;;;;13.50;3.17;;;;;;;;;;5092342;28;20051;-67
2023/03/26 09:26:45;;;;;;;12.35;1.95;;;;;;;;;;5089460;28;20023;-67
2023/03/26 09:29:25;;;;;;;6.07;2.15;;;;;;;;;;5089402;28;20039;-68
2023/03/26 09:32:02;;;;;;;11.05;2.80;;;;;;;;;;5088003;28;20395;-68
2023/03/26 09:34:31;;;;;;;13.43;3.83;;;;;;;;;;5088968;28;20489;-68
2023/03/26 09:37:15;;;;;;;15.45;2.75;;;;;;;;;;5107038;28;20174;-70
2023/03/26 09:39:47;;;;;;;10.20;2.50;;;;;;;;;;5097125;28;20221;-68
2023/03/26 09:42:21;;;;;;;14.32;2.88;;;;;;;;;;5102854;28;20095;-67
2023/03/26 09:44:49;;;;;;;13.75;2.42;;;;;;;;;;5106231;28;20031;-68
2023/03/26 09:47:18;;;;;;;11.80;2.17;;;;;;;;;;5109762;28;20016;-68
2023/03/26 09:50:00;;;;;;;13.77;2.53;;;;;;;;;;5110612;28;20024;-67
2023/03/26 09:52:26;;;;;;;15.20;2.20;;;;;;;;;;5097712;28;20031;-68
2023/03/26 09:54:54;;;;;;;12.18;2.70;;;;;;;;;;5088419;28;20020;-68
2023/03/26 09:57:22;;;;;;;14.73;2.10;;;;;;;;;;5088819;28;20060;-68
2023/03/26 10:00:00;;;;;;;7.25;1.88;;;;;;;;;;5101683;28;20023;-68
2023/03/26 10:02:44;;;;;;;10.73;2.00;;;;;;;;;;5098534;28;20027;-68
2023/03/26 10:05:16;;;;;;;9.32;2.28;;;;;;;;;;5099289;28;20059;-67
2023/03/26 10:07:48;;;;;;;17.48;2.60;;;;;;;;;;5101816;28;20036;-68
2023/03/26 10:10:16;;;;;;;12.88;2.58;;;;;;;;;;5081406;28;20096;-67
2023/03/26 10:12:42;;;;;;;10.88;2.40;;;;;;;;;;5094740;28;20019;-67
2023/03/26 10:15:43;;;;;;;13.73;3.17;;;;;;;;;;5095897;28;20031;-69
2023/03/26 10:18:16;;;;;;;9.32;1.75;;;;;;;;;;4996612;28;20068;-69
2023/03/26 10:21:00;;;;;;;15.25;1.95;;;;;;;;;;5067970;28;20114;-68
2023/03/26 10:23:38;;;;;;;13.60;2.95;;;;;;;;;;5098997;28;20024;-68
2023/03/26 10:26:09;;;;;;;6.90;2.10;;;;;;;;;;5085217;28;20504;-67
2023/03/26 10:28:41;;;;;;;11.82;2.45;;;;;;;;;;5070042;28;20038;-67
2023/03/26 10:31:21;;;;;;;7.97;2.30;;;;;;;;;;5071612;28;20078;-68
2023/03/26 10:33:52;;;;;;;11.35;2.53;;;;;;;;;;5072137;28;20028;-70
2023/03/26 10:36:17;;;;;;;9.05;2.22;;;;;;;;;;5067913;28;20054;-67
2023/03/26 10:39:01;;;;;;;8.77;2.00;;;;;;;;;;5070526;28;20671;-68
2023/03/26 10:41:26;;;;;;;12.70;2.90;;;;;;;;;;5075296;28;20043;-68
2023/03/26 10:44:07;;;;;;;10.05;2.88;;;;;;;;;;5070997;28;20028;-69
2023/03/26 10:46:35;;;;;;;7.93;1.88;;;;;;;;;;5066857;28;20069;-68
2023/03/26 10:49:09;;;;;;;8.60;2.28;;;;;;;;;;5070615;28;20021;-68
2023/03/26 10:51:50;;;;;;;12.48;2.42;;;;;;;;;;5070571;28;20083;-69
2023/03/26 10:54:24;;;;;;;8.43;2.08;;;;;;;;;;5074364;28;20059;-67
2023/03/26 10:56:50;;;;;;;13.27;2.10;;;;;;;;;;5071118;28;20504;-67
2023/03/26 10:59:16;;;;;;;13.82;2.38;;;;;;;;;;5074723;28;20063;-67
2023/03/26 11:01:41;;;;;;;6.82;1.65;;;;;;;;;;5071843;28;20031;-66
2023/03/26 11:04:06;;;;;;;9.35;2.03;;;;;;;;;;5073255;28;20020;-67
2023/03/26 11:07:04;;;;;;;11.23;2.50;;;;;;;;;;5073673;28;20021;-68
2023/03/26 11:09:46;;;;;;;6.53;2.08;;;;;;;;;;5039742;28;20040;-66
2023/03/26 11:12:14;;;;;;;11.88;2.10;;;;;;;;;;5074757;28;20512;-68
2023/03/26 11:14:45;;;;;;;10.82;2.78;;;;;;;;;;5071121;28;20047;-67
2023/03/26 11:17:23;;;;;;;9.75;1.88;;;;;;;;;;5078752;28;20035;-70
2023/03/26 11:19:54;;;;;;;8.23;1.98;;;;;;;;;;5078064;28;20029;-66
2023/03/26 11:22:22;;;;;;;12.30;2.92;;;;;;;;;;5073387;28;20520;-68
2023/03/26 11:24:53;;;;;;;10.23;2.10;;;;;;;;;;5075076;28;20039;-68
2023/03/26 11:27:21;;;;;;;11.93;2.10;;;;;;;;;;5072370;28;20135;-69
2023/03/26 11:30:01;;;;;;;9.15;1.60;;;;;;;;;;5077378;28;20107;-66
2023/03/26 11:32:41;;;;;;;7.75;1.88;;;;;;;;;;5076652;28;20028;-69
2023/03/26 11:35:07;;;;;;;15.38;2.47;;;;;;;;;;5075385;28;20043;-67
2023/03/26 11:37:43;;;;;;;11.70;2.28;;;;;;;;;;5077124;28;20059;-69
2023/03/26 11:40:13;;;;;;;8.45;2.05;;;;;;;;;;5077159;28;20024;-68
2023/03/26 11:42:39;;;;;;;7.57;2.05;;;;;;;;;;5079292;28;20070;-68
2023/03/26 11:45:06;;;;;;;8.45;1.83;;;;;;;;;;5075877;28;20155;-68
2023/03/26 11:47:38;;;;;;;7.38;1.73;;;;;;;;;;5076192;28;20586;-67
2023/03/26 11:50:05;;;;;;;12.43;1.70;;;;;;;;;;5074239;28;20037;-67
2023/03/26 11:52:31;;;;;;;7.15;2.58;;;;;;;;;;5076837;28;20434;-68
2023/03/26 11:54:57;;;;;;;10.45;2.58;;;;;;;;;;5075654;28;20528;-68
2023/03/26 11:57:25;;;;;;;9.10;1.80;;;;;;;;;;5077559;28;20032;-69
2023/03/26 11:59:53;;;;;;;13.75;3.03;;;;;;;;;;5075465;28;20035;-69
2023/03/26 12:02:27;;;;;;;15.57;2.23;;;;;;;;;;5099411;27;20028;-68
2023/03/26 12:05:02;;;;;;;8.02;1.60;;;;;;;;;;5076943;28;20273;-68
2023/03/26 12:07:31;;;;;;;10.57;2.05;;;;;;;;;;5077629;28;20406;-67
2023/03/26 12:09:58;;;;;;;9.10;2.10;;;;;;;;;;5076303;28;20031;-66
2023/03/26 12:12:24;;;;;;;9.50;1.67;;;;;;;;;;5076804;28;20747;-67
2023/03/26 12:14:50;;;;;;;10.75;2.10;;;;;;;;;;5077361;28;20020;-67
2023/03/26 12:17:34;;;;;;;8.30;1.90;;;;;;;;;;5072872;28;20735;-70
2023/03/26 12:20:00;;;;;;;9.27;2.17;;;;;;;;;;5076368;28;20102;-68
2023/03/26 12:22:28;;;;;;;11.68;2.65;;;;;;;;;;5074070;28;21235;-68
2023/03/26 12:25:00;;;;;;;6.80;1.60;;;;;;;;;;5070332;28;20039;-69
2023/03/26 12:27:29;;;;;;;5.47;2.05;;;;;;;;;;5074518;28;20105;-67
2023/03/26 12:30:07;;;;;;;8.15;1.83;;;;;;;;;;5074808;28;20112;-67
2023/03/26 12:32:38;;;;;;;8.73;1.60;;;;;;;;;;5075504;28;20016;-69
2023/03/26 12:35:06;;;;;;;6.43;1.63;;;;;;;;;;5071979;28;20248;-70
2023/03/26 12:37:40;;;;;;;14.10;2.40;;;;;;;;;;5073661;28;20077;-67
2023/03/26 12:40:26;;;;;;;14.35;2.08;;;;;;;;;;5075505;28;20024;-68
2023/03/26 12:42:52;;;;;;;9.82;2.00;;;;;;;;;;5073530;28;20148;-67
2023/03/26 12:45:22;;;;;;;10.93;1.60;;;;;;;;;;5071052;28;20090;-68
2023/03/26 12:47:47;;;;;;;14.63;4.05;;;;;;;;;;5072957;28;20028;-68
2023/03/26 12:50:16;;;;;;;13.95;4.30;;;;;;;;;;5075903;28;20024;-67
2023/03/26 12:52:52;;;;;;;14.40;1.90;;;;;;;;;;5076353;28;20025;-67
2023/03/26 12:55:27;;;;;;;8.65;2.05;;;;;;;;;;5075921;28;20281;-68
2023/03/26 12:57:58;;;;;;;11.25;1.50;;;;;;;;;;5071216;28;20030;-67
2023/03/26 13:00:39;;;;;;;11.00;1.75;;;;;;;;;;5075207;28;20826;-66
2023/03/26 13:03:10;;;;;;;5.93;1.90;;;;;;;;;;5073057;28;20028;-68
2023/03/26 13:05:51;;;;;;;4.63;1.35;;;;;;;;;;5076447;28;20023;-69
2023/03/26 13:08:22;;;;;;;10.35;1.73;;;;;;;;;;5070861;28;20836;-70
2023/03/26 13:10:48;;;;;;;7.28;1.55;;;;;;;;;;5075259;28;20062;-70
2023/03/26 13:13:34;;;;;;;14.98;3.58;;;;;;;;;;5075349;28;20028;-68
2023/03/26 13:16:12;;;;;;;7.95;2.30;;;;;;;;;;5041358;28;20041;-67
2023/03/26 13:18:40;;;;;;;5.70;2.00;;;;;;;;;;5076810;28;20044;-68
2023/03/26 13:21:17;;;;;;;10.73;2.13;;;;;;;;;;5073120;28;20024;-67
2023/03/26 13:23:52;;;;;;;12.85;2.33;;;;;;;;;;5071655;28;20032;-69
2023/03/26 13:26:25;;;;;;;8.07;1.92;;;;;;;;;;5071224;28;20068;-68
2023/03/26 13:29:09;;;;;;;8.18;1.83;;;;;;;;;;5080874;22;20705;-67
2023/03/26 13:31:34;;;;;;;6.63;1.88;;;;;;;;;;5051270;28;20571;-66
2023/03/26 13:34:06;;;;;;;10.02;1.95;;;;;;;;;;5070961;28;20085;-69
2023/03/26 13:36:35;;;;;;;12.77;1.80;;;;;;;;;;5071382;28;20024;-69
2023/03/26 13:39:02;;;;;;;6.32;1.50;;;;;;;;;;5065840;28;20131;-67
2023/03/26 13:41:46;;;;;;;7.60;1.73;;;;;;;;;;5053618;28;20079;-67
2023/03/26 13:44:23;;;;;;;5.70;1.67;;;;;;;;;;5050073;28;20028;-66
2023/03/26 13:46:59;;;;;;;5.15;1.50;;;;;;;;;;5053454;28;20033;-69
2023/03/26 13:49:27;;;;;;;6.28;1.85;;;;;;;;;;5051976;28;20144;-66
2023/03/26 13:51:57;;;;;;;5.15;1.77;;;;;;;;;;5050405;28;20032;-65
2023/03/26 13:54:22;;;;;;;4.35;1.42;;;;;;;;;;5049236;28;20930;-66
2023/03/26 13:56:57;;;;;;;6.85;1.17;;;;;;;;;;5051199;28;20062;-70
2023/03/26 13:59:29;;;;;;;4.85;1.25;;;;;;;;;;5051942;28;20390;-67
2023/03/26 14:01:57;;;;;;;3.10;1.33;;;;;;;;;;5053635;28;20051;-66
2023/03/26 14:04:30;;;;;;;6.03;1.30;;;;;;;;;;5051264;28;20131;-69
2023/03/26 14:06:56;;;;;;;5.47;1.30;;;;;;;;;;5047709;28;20113;-66
2023/03/26 14:09:40;;;;;;;5.72;1.17;;;;;;;;;;5049826;28;20017;-68
2023/03/26 14:12:26;;;;;;;5.03;1.65;;;;;;;;;;5050176;28;20036;-68
2023/03/26 14:14:59;;;;;;;10.70;1.40;;;;;;;;;;5052432;28;20031;-66
2023/03/26 14:17:32;;;;;;;7.28;1.95;;;;;;;;;;5047723;28;20178;-67
2023/03/26 14:20:18;;;;;;;5.22;2.00;;;;;;;;;;5047425;28;20174;-69
2023/03/26 14:22:59;;;;;;;4.75;1.40;;;;;;;;;;5053856;28;20020;-67
2023/03/26 14:25:24;;;;;;;7.15;1.23;;;;;;;;;;5047373;28;20059;-70
2023/03/26 14:28:00;;;;;;;12.02;1.92;;;;;;;;;;5049476;28;20025;-65
2023/03/26 14:30:39;;;;;;;8.90;1.55;;;;;;;;;;5048339;28;20024;-66
2023/03/26 14:33:26;;;;;;;5.50;1.83;;;;;;;;;;5051456;28;20040;-67
2023/03/26 14:36:12;;;;;;;7.13;1.77;;;;;;;;;;5050821;28;20025;-69
2023/03/26 14:38:56;;;;;;;8.15;1.90;;;;;;;;;;5039464;28;20056;-67
2023/03/26 14:41:23;;;;;;;6.05;1.65;;;;;;;;;;5055455;28;20098;-65
2023/03/26 14:44:07;;;;;;;8.65;2.22;;;;;;;;;;5049854;28;20036;-66
2023/03/26 14:46:36;;;;;;;3.80;1.50;;;;;;;;;;5029549;28;20017;-69
2023/03/26 14:49:18;;;;;;;10.77;1.67;;;;;;;;;;5053402;28;20369;-68
2023/03/26 14:51:50;;;;;;;7.68;2.20;;;;;;;;;;5051607;28;20642;-67
2023/03/26 14:54:21;;;;;;;9.90;1.77;;;;;;;;;;5051762;28;20034;-68
2023/03/26 14:57:05;;;;;;;4.03;1.20;;;;;;;;;;5051974;28;20331;-68